Viking Queen — WDB9919 — position and weather

sailwx.info

Track history (hours):
 
Tides and Currents Weather Stations Pressure Air Temp Water Temp Dewpoint Dewpoint Depression Visibility Wind Speed Wind Dir Waves Ship Positions

Viking Queen

Owner: American River Transportation Company, St Louis, MO. More information available from US FCC via Universal Licensing System and Coast Guard Vessel Documentation Center.

Last reported at 2016-Jun-21 10:33 UTC. Time now 2016-Jun-30 05:05 UTC.
Position N 33°03' W 091°09'.
Warning: this ship's position is 8 days out of date.

; draft 3.2 m.

Type: Towing. MMSI: 366985050.

Date/timePositionNaut miles runAvg speedWind from/ knotsBaromVisibWave heightAir tempDewpointWater temp
2016-Jun-21 10:33N 33°03' W 091°09'4 4.0
2016-Jun-21 09:34N 32°59' W 091°10'12 2.4
2016-Jun-21 04:27N 32°47' W 091°09'5 3.5
2016-Jun-21 03:05N 32°44' W 091°05'5 3.0
2016-Jun-21 01:32N 32°40' W 091°07'3 3.0
2016-Jun-21 00:34N 32°38' W 091°09'5 4.7
2016-Jun-20 23:34N 32°34' W 091°06'4 4.3
2016-Jun-20 22:34N 32°29' W 091°07'3 3.5
2016-Jun-20 21:34N 32°27' W 091°04'4 4.5
2016-Jun-20 20:34N 32°25' W 090°60'3 3.5
2016-Jun-20 19:34N 32°21' W 090°59'5 4.5
2016-Jun-20 18:34N 32°20' W 090°54'2 2.5
2016-Jun-20 17:34N 32°18' W 090°55'0 0.0
2016-Jun-20 16:34N 32°18' W 090°55'0 0.0
2016-Jun-20 15:34N 32°18' W 090°55'0 0.0
2016-Jun-20 14:34N 32°18' W 090°55'3 2.6
2016-Jun-20 13:34N 32°16' W 090°58'5 4.5
2016-Jun-20 12:33N 32°12' W 090°59'4 4.5
2016-Jun-20 11:34N 32°08' W 091°01'4 4.4
2016-Jun-20 10:33N 32°08' W 091°06'4 4.1
2016-Jun-20 09:30N 32°04' W 091°04'3 3.1
2016-Jun-20 08:33N 32°01' W 091°04'6 4.3
2016-Jun-20 07:10N 31°58' W 091°11'74 3.3
2016-Jun-19 08:33N 30°47' W 091°34'54 2.6
2016-Jun-18 11:29N 30°04' W 090°54'1 0.0
2016-Jun-17 09:33N 30°04' W 090°54'4 3.9
2016-Jun-17 08:26N 30°06' W 090°58'5 3.5
2016-Jun-17 07:05N 30°10' W 091°01'4 6.6
2016-Jun-17 06:33N 30°13' W 091°04'6 2.8
2016-Jun-17 04:29N 30°17' W 091°09'61 4.1
2016-Jun-16 13:20N 31°13' W 091°37'10 4.8
2016-Jun-16 11:16N 31°21' W 091°30'24 6.4
2016-Jun-16 07:32N 31°44' W 091°23'8 7.3
2016-Jun-16 06:30N 31°51' W 091°20'13 6.5
2016-Jun-16 04:31N 31°59' W 091°08'6 6.3
2016-Jun-16 03:33N 32°04' W 091°04'4 3.5
2016-Jun-16 02:33N 32°07' W 091°03'7 6.8
2016-Jun-16 01:34N 32°13' W 090°59'7 7.5
2016-Jun-16 00:34N 32°19' W 090°54'6 6.0
2016-Jun-15 23:34N 32°23' W 091°00'6 6.4
2016-Jun-15 22:34N 32°27' W 091°05'7 6.8
2016-Jun-15 21:33N 32°34' W 091°06'6 6.2
2016-Jun-15 20:33N 32°40' W 091°08'  
Track history (hours):
 
Tides and Currents Weather Stations Pressure Air Temp Water Temp Dewpoint Dewpoint Depression Visibility Wind Speed Wind Dir Waves Ship Positions

Viking Queen

Owner: American River Transportation Company, St Louis, MO. More information available from US FCC via Universal Licensing System and Coast Guard Vessel Documentation Center.

Last reported at 2016-Jun-21 10:33 UTC. Time now 2016-Jun-30 05:05 UTC.
Position N 33°03' W 091°09'.
Warning: this ship's position is 8 days out of date.

; draft 3.2 m.

Type: Towing. MMSI: 366985050.

Date/timePositionNaut miles runAvg speedWind from/ knotsBaromVisibWave heightAir tempDewpointWater temp
2016-Jun-21 10:33N 33°03' W 091°09'4 4.0
2016-Jun-21 09:34N 32°59' W 091°10'12 2.4
2016-Jun-21 04:27N 32°47' W 091°09'5 3.5
2016-Jun-21 03:05N 32°44' W 091°05'5 3.0
2016-Jun-21 01:32N 32°40' W 091°07'3 3.0
2016-Jun-21 00:34N 32°38' W 091°09'5 4.7
2016-Jun-20 23:34N 32°34' W 091°06'4 4.3
2016-Jun-20 22:34N 32°29' W 091°07'3 3.5
2016-Jun-20 21:34N 32°27' W 091°04'4 4.5
2016-Jun-20 20:34N 32°25' W 090°60'3 3.5
2016-Jun-20 19:34N 32°21' W 090°59'5 4.5
2016-Jun-20 18:34N 32°20' W 090°54'2 2.5
2016-Jun-20 17:34N 32°18' W 090°55'0 0.0
2016-Jun-20 16:34N 32°18' W 090°55'0 0.0
2016-Jun-20 15:34N 32°18' W 090°55'0 0.0
2016-Jun-20 14:34N 32°18' W 090°55'3 2.6
2016-Jun-20 13:34N 32°16' W 090°58'5 4.5
2016-Jun-20 12:33N 32°12' W 090°59'4 4.5
2016-Jun-20 11:34N 32°08' W 091°01'4 4.4
2016-Jun-20 10:33N 32°08' W 091°06'4 4.1
2016-Jun-20 09:30N 32°04' W 091°04'3 3.1
2016-Jun-20 08:33N 32°01' W 091°04'6 4.3
2016-Jun-20 07:10N 31°58' W 091°11'74 3.3
2016-Jun-19 08:33N 30°47' W 091°34'54 2.6
2016-Jun-18 11:29N 30°04' W 090°54'1 0.0
2016-Jun-17 09:33N 30°04' W 090°54'4 3.9
2016-Jun-17 08:26N 30°06' W 090°58'5 3.5
2016-Jun-17 07:05N 30°10' W 091°01'4 6.6
2016-Jun-17 06:33N 30°13' W 091°04'6 2.8
2016-Jun-17 04:29N 30°17' W 091°09'61 4.1
2016-Jun-16 13:20N 31°13' W 091°37'10 4.8
2016-Jun-16 11:16N 31°21' W 091°30'24 6.4
2016-Jun-16 07:32N 31°44' W 091°23'8 7.3
2016-Jun-16 06:30N 31°51' W 091°20'13 6.5
2016-Jun-16 04:31N 31°59' W 091°08'6 6.3
2016-Jun-16 03:33N 32°04' W 091°04'4 3.5
2016-Jun-16 02:33N 32°07' W 091°03'7 6.8
2016-Jun-16 01:34N 32°13' W 090°59'7 7.5
2016-Jun-16 00:34N 32°19' W 090°54'6 6.0
2016-Jun-15 23:34N 32°23' W 091°00'6 6.4
2016-Jun-15 22:34N 32°27' W 091°05'7 6.8
2016-Jun-15 21:33N 32°34' W 091°06'6 6.2
2016-Jun-15 20:33N 32°40' W 091°08'  

Dump ship's entire track history